aviador You're here:

PACV Decoded Metar

CORDOVA in AK, USA
Report Time2017-07-26 05:53:00
UTC Time2017-07-26 06:31:53
Flight Rules mvfr MVFR
Wind080° at 05 kt
W.Decomp.*RWY 09: 4.4 kt HW 2.4 kt LCW
RWY 34: 0.8 kt HW 4.9 kt RCW
W.Rank080° ranks 5
Current wind is below 080° avg. (5.7)
Visibility9999 m
Phenomena:N/A
Clouds:Overcast 013 Hf
Ceiling1,300 ft
Temp11°C (ISA -4)
Dew Point11°C (100% RH)
AAT9.5°C
QNH1015 hPa
Density Alt-322 ft
Elevation39 ft
Report Wrong Elevation
Raw Report
PACV 260553Z 08005KT 10SM OVC013 11/11 A2997 RMK AO2 SLP149 60000
T01110106 10150 20111 56002=

Extra information for PACV:More info

Metar Taf Metar & Taf Last 4 Metars F.Rules Stats Wind Profile Meteogram Temp Stats Airport Information Weather charts Add Link Nearby VenuesMetar ALERT Operation Metar Decoded Social comments

AIRNAV info for PACV